createdAt,value
2022-08-29T00:02:15.582Z,100454.53
2022-08-29T00:04:47.323Z,100451.31
2022-08-29T00:07:18.573Z,100451.31
2022-08-29T00:09:50.894Z,100442.34
2022-08-29T00:12:21.620Z,100439.50
2022-08-29T00:14:52.355Z,100446.44
2022-08-29T00:17:23.056Z,100446.44
2022-08-29T00:19:54.065Z,100452.94
2022-08-29T00:22:24.300Z,100440.72
2022-08-29T00:24:57.169Z,100444.38
2022-08-29T00:27:28.137Z,100443.13
2022-08-29T00:29:59.074Z,100446.81
2022-08-29T00:32:35.448Z,100439.88
2022-08-29T00:35:09.021Z,100444.34
2022-08-29T00:37:40.161Z,100444.34
2022-08-29T00:40:21.574Z,100448.81
2022-08-29T00:42:52.909Z,100443.09
2022-08-29T00:45:25.076Z,100445.53
2022-08-29T00:48:00.192Z,100444.72
2022-08-29T00:50:38.399Z,100444.72
2022-08-29T00:53:17.526Z,100456.13
2022-08-29T00:55:52.093Z,100446.78
2022-08-29T00:58:30.839Z,100446.78
2022-08-29T01:01:02.487Z,100448.81
2022-08-29T01:03:42.832Z,100450.41
2022-08-29T01:06:15.994Z,100450.03
2022-08-29T01:08:47.641Z,100460.66
2022-08-29T01:11:38.548Z,100459.84
2022-08-29T01:14:09.590Z,100460.75
2022-08-29T01:16:42.010Z,100464.41
2022-08-29T01:19:28.009Z,100466.81
2022-08-29T01:22:10.323Z,100467.25
2022-08-29T01:24:51.171Z,100472.19
2022-08-29T01:27:25.947Z,100467.72
2022-08-29T01:29:56.998Z,100472.19
2022-08-29T01:32:28.613Z,100464.41
2022-08-29T01:34:59.473Z,100475.81
2022-08-29T01:37:35.488Z,100468.09
2022-08-29T01:40:11.303Z,100474.59
2022-08-29T01:42:41.804Z,100477.44
2022-08-29T01:45:13.712Z,100473.34
2022-08-29T01:47:44.886Z,100480.28
2022-08-29T01:50:18.717Z,100482.28
2022-08-29T01:52:49.212Z,100489.22
2022-08-29T01:55:21.601Z,100485.56
2022-08-29T01:57:52.325Z,100483.16
2022-08-29T02:00:23.809Z,100492.50
2022-08-29T02:02:57.282Z,100487.59
2022-08-29T02:05:27.477Z,100494.09
2022-08-29T02:07:59.066Z,100494.56
2022-08-29T02:10:32.283Z,100496.16
2022-08-29T02:13:03.101Z,100501.06
2022-08-29T02:15:33.694Z,100497.41
2022-08-29T02:18:04.422Z,100496.63
2022-08-29T02:20:34.908Z,100501.50
2022-08-29T02:23:17.273Z,100499.47
2022-08-29T02:25:59.212Z,100497.41
2022-08-29T02:28:30.273Z,100497.41
2022-08-29T02:31:02.136Z,100492.50
2022-08-29T02:33:34.047Z,100496.16
2022-08-29T02:36:06.045Z,100499.03
2022-08-29T02:38:37.728Z,100499.03
2022-08-29T02:41:14.133Z,100496.97
2022-08-29T02:43:45.771Z,100505.53
2022-08-29T02:46:21.901Z,100499.81
2022-08-29T02:49:00.494Z,100501.06
2022-08-29T02:51:35.210Z,100505.59
2022-08-29T02:54:07.020Z,100510.13
2022-08-29T02:56:39.829Z,100504.41
2022-08-29T02:59:11.310Z,100506.44
2022-08-29T03:01:42.474Z,100515.00
2022-08-29T03:04:13.137Z,100505.66
2022-08-29T03:06:44.474Z,100509.28
2022-08-29T03:09:15.136Z,100510.13
2022-08-29T03:11:47.527Z,100514.22
2022-08-29T03:14:18.906Z,100506.88
2022-08-29T03:16:49.703Z,100515.44
2022-08-29T03:19:21.308Z,100505.66
2022-08-29T03:21:52.930Z,100508.50
2022-08-29T03:24:26.341Z,100508.50
2022-08-29T03:26:59.972Z,100508.50
2022-08-29T03:29:30.577Z,100510.56
2022-08-29T03:32:01.402Z,100508.56
2022-08-29T03:34:31.888Z,100508.63
2022-08-29T03:37:03.363Z,100510.28
2022-08-29T03:39:34.052Z,100509.03
2022-08-29T03:42:07.819Z,100517.97
2022-08-29T03:44:41.773Z,100512.28
2022-08-29T03:47:12.562Z,100498.84
2022-08-29T03:49:44.240Z,100507.75
2022-08-29T03:52:15.083Z,100507.75
2022-08-29T03:54:45.240Z,100515.06
2022-08-29T03:57:18.567Z,100510.19
2022-08-29T03:59:49.033Z,100510.19
2022-08-29T04:02:24.926Z,100513.44
2022-08-29T04:05:10.513Z,100511.41
2022-08-29T04:07:44.540Z,100517.56
2022-08-29T04:10:19.466Z,100522.00
2022-08-29T04:12:54.925Z,100522.38
2022-08-29T04:15:27.697Z,100521.59
2022-08-29T04:18:03.111Z,100524.00
2022-08-29T04:20:38.171Z,100524.38
2022-08-29T04:23:09.477Z,100521.91
2022-08-29T04:25:40.280Z,100526.84
2022-08-29T04:28:18.635Z,100516.69
2022-08-29T04:30:51.766Z,100520.72
2022-08-29T04:33:25.909Z,100521.91
2022-08-29T04:35:57.119Z,100520.59
2022-08-29T04:38:27.792Z,100526.28
2022-08-29T04:40:58.818Z,100516.03
2022-08-29T04:43:31.048Z,100519.66
2022-08-29T04:46:01.901Z,100518.75
2022-08-29T04:48:32.373Z,100515.13
2022-08-29T04:51:04.803Z,100519.97
2022-08-29T04:53:35.996Z,100523.16
2022-08-29T04:56:11.976Z,100527.22
2022-08-29T04:58:48.378Z,100532.50
2022-08-29T05:01:22.628Z,100529.19
2022-08-29T05:03:55.787Z,100527.88
2022-08-29T05:06:28.216Z,100525.00
2022-08-29T05:09:00.121Z,100532.31
2022-08-29T05:11:34.973Z,100522.06
2022-08-29T05:14:07.331Z,100525.66
2022-08-29T05:16:39.663Z,100530.50
2022-08-29T05:19:15.551Z,100527.16
2022-08-29T05:21:46.686Z,100520.53
2022-08-29T05:24:19.699Z,100532.75
2022-08-29T05:26:50.336Z,100524.91
2022-08-29T05:29:23.116Z,100535.03
2022-08-29T05:31:53.557Z,100521.13
2022-08-29T05:34:33.904Z,100521.03
2022-08-29T05:37:08.994Z,100521.34
2022-08-29T05:39:40.485Z,100520.03
2022-08-29T05:42:12.445Z,100526.50
2022-08-29T05:44:45.801Z,100521.53
2022-08-29T05:47:19.637Z,100523.06
2022-08-29T05:49:51.995Z,100530.31
2022-08-29T05:52:23.831Z,100531.84
2022-08-29T05:54:54.876Z,100523.22
2022-08-29T05:57:26.839Z,100530.94
2022-08-29T05:59:59.415Z,100524.31
2022-08-29T06:02:29.491Z,100515.25
2022-08-29T06:05:00.477Z,100526.13
2022-08-29T06:07:31.476Z,100527.66
2022-08-29T06:10:07.263Z,100521.00
2022-08-29T06:12:38.615Z,100523.78
2022-08-29T06:15:12.715Z,100522.44
2022-08-29T06:17:43.365Z,100522.72
2022-08-29T06:20:15.028Z,100520.25
2022-08-29T06:22:45.814Z,100516.91
2022-08-29T06:25:38.091Z,100524.94
2022-08-29T06:28:08.168Z,100529.78
2022-08-29T06:30:41.568Z,100523.97
2022-08-29T06:33:12.267Z,100521.47
2022-08-29T06:35:42.520Z,100521.38
2022-08-29T06:38:14.253Z,100520.16
2022-08-29T06:40:44.977Z,100530.25
2022-08-29T06:43:15.771Z,100535.53
2022-08-29T06:45:49.792Z,100535.00
2022-08-29T06:48:20.816Z,100533.66
2022-08-29T06:50:52.130Z,100535.97
2022-08-29T06:53:32.133Z,100537.06
2022-08-29T06:56:11.543Z,100540.56
2022-08-29T06:58:42.895Z,100540.84
2022-08-29T07:01:19.205Z,100538.25
2022-08-29T07:03:50.424Z,100545.13
2022-08-29T07:06:22.878Z,100542.22
2022-08-29T07:08:55.812Z,100547.03
2022-08-29T07:11:28.097Z,100550.25
2022-08-29T07:14:01.222Z,100548.19
2022-08-29T07:16:36.491Z,100546.13
2022-08-29T07:19:08.659Z,100550.97
2022-08-29T07:21:40.516Z,100554.53
2022-08-29T07:24:11.818Z,100555.25
2022-08-29T07:26:46.669Z,100553.13
2022-08-29T07:29:21.290Z,100553.47
2022-08-29T07:31:54.465Z,100547.31
2022-08-29T07:34:25.540Z,100554.19
2022-08-29T07:36:56.642Z,100552.50
2022-08-29T07:39:34.428Z,100549.09
2022-08-29T07:42:05.499Z,100555.16
2022-08-29T07:44:35.754Z,100549.00
2022-08-29T07:47:09.174Z,100544.41
2022-08-29T07:49:44.378Z,100550.50
2022-08-29T07:52:14.752Z,100538.94
2022-08-29T07:54:45.414Z,100549.84
2022-08-29T07:57:19.447Z,100546.44
2022-08-29T07:59:49.705Z,100542.69
2022-08-29T08:02:23.699Z,100550.47
2022-08-29T08:04:55.120Z,100539.00
2022-08-29T08:07:29.403Z,100533.63
2022-08-29T08:10:01.067Z,100531.91
2022-08-29T08:12:32.141Z,100533.06
2022-08-29T08:15:04.139Z,100532.66
2022-08-29T08:17:44.076Z,100533.34
2022-08-29T08:20:16.872Z,100530.47
2022-08-29T08:22:47.776Z,100530.94
2022-08-29T08:25:18.273Z,100533.03
2022-08-29T08:27:55.574Z,100527.19
2022-08-29T08:30:25.793Z,100529.13
2022-08-29T08:32:58.467Z,100528.22
2022-08-29T08:35:30.578Z,100529.72
2022-08-29T08:38:03.110Z,100525.97
2022-08-29T08:40:35.448Z,100530.44
2022-08-29T08:43:05.817Z,100527.09
2022-08-29T08:45:52.604Z,100519.53
2022-08-29T08:48:34.933Z,100521.03
2022-08-29T08:51:16.727Z,100520.59
2022-08-29T08:53:51.380Z,100517.63
2022-08-29T08:56:31.557Z,100520.38
2022-08-29T08:59:17.865Z,100518.25
2022-08-29T09:02:07.411Z,100525.22
2022-08-29T09:04:59.021Z,100522.78
2022-08-29T09:07:55.661Z,100521.19
2022-08-29T09:10:44.133Z,100525.09
2022-08-29T09:13:31.819Z,100526.00
2022-08-29T09:16:11.406Z,100526.44
2022-08-29T09:18:57.608Z,100527.72
2022-08-29T09:21:46.956Z,100516.66
2022-08-29T09:24:31.386Z,100521.50
2022-08-29T09:27:01.819Z,100521.03
2022-08-29T09:29:34.972Z,100513.16
2022-08-29T09:32:13.077Z,100513.50
2022-08-29T09:35:08.006Z,100512.59
2022-08-29T09:37:41.661Z,100511.78
2022-08-29T09:40:19.444Z,100510.16
2022-08-29T09:43:03.500Z,100504.44
2022-08-29T09:45:34.461Z,100507.66
2022-08-29T09:48:20.122Z,100506.78
2022-08-29T09:50:51.319Z,100500.19
2022-08-29T09:53:28.437Z,100498.50
2022-08-29T09:56:19.070Z,100502.19
2022-08-29T09:59:04.539Z,100490.72
2022-08-29T10:01:36.767Z,100490.72
2022-08-29T10:04:10.978Z,100492.69
2022-08-29T10:06:47.242Z,100486.94
2022-08-29T10:09:32.184Z,100488.56
2022-08-29T10:12:14.457Z,100490.94
2022-08-29T10:14:54.456Z,100489.00
2022-08-29T10:17:56.452Z,100488.31
2022-08-29T10:20:43.355Z,100489.66
2022-08-29T10:23:29.177Z,100481.97
2022-08-29T10:26:08.414Z,100486.09
2022-08-29T10:28:48.726Z,100487.69
2022-08-29T10:31:33.093Z,100480.34
2022-08-29T10:34:28.055Z,100480.69
2022-08-29T10:37:08.826Z,100482.41
2022-08-29T10:39:51.156Z,100474.59
2022-08-29T10:42:29.140Z,100472.09
2022-08-29T10:45:18.819Z,100468.75
2022-08-29T10:48:03.390Z,100472.88
2022-08-29T10:50:47.554Z,100467.16
2022-08-29T10:53:26.713Z,100460.63
2022-08-29T10:56:06.451Z,100464.75
2022-08-29T10:59:00.814Z,100464.75
2022-08-29T11:01:38.707Z,100459.00
2022-08-29T11:04:19.794Z,100461.88
2022-08-29T11:07:03.185Z,100454.06
2022-08-29T11:09:43.335Z,100462.78
2022-08-29T11:12:21.201Z,100453.84
2022-08-29T11:15:02.785Z,100452.56
2022-08-29T11:17:41.297Z,100453.41
2022-08-29T11:20:18.903Z,100453.84
2022-08-29T11:22:57.296Z,100457.28
2022-08-29T11:25:28.923Z,100443.84
2022-08-29T11:28:11.720Z,100433.63
2022-08-29T11:30:56.166Z,100433.63
2022-08-29T11:33:40.502Z,100438.94
2022-08-29T11:36:48.243Z,100431.94
2022-08-29T11:39:53.330Z,100426.41
2022-08-29T11:45:36.913Z,100426.16
2022-08-29T11:48:36.566Z,100427.44
2022-08-29T11:51:38.227Z,100423.31
2022-08-29T11:54:51.962Z,100425.38
2022-08-29T11:57:51.639Z,100425.38
2022-08-29T12:00:39.852Z,100408.97
2022-08-29T12:03:47.515Z,100415.16
2022-08-29T12:06:57.413Z,100417.69
2022-08-29T12:09:48.955Z,100411.16
2022-08-29T12:12:48.893Z,100416.19
2022-08-29T12:15:56.783Z,100404.84
2022-08-29T12:18:53.454Z,100409.41
2022-08-29T12:21:47.740Z,100410.66
2022-08-29T12:24:39.402Z,100405.81
2022-08-29T12:27:47.946Z,100396.53
2022-08-29T12:30:18.985Z,100403.97
2022-08-29T12:33:10.370Z,100402.81
2022-08-29T12:36:25.353Z,100401.22
2022-08-29T12:39:19.390Z,100402.03
2022-08-29T12:42:22.651Z,100398.91
2022-08-29T12:45:04.957Z,100401.44
2022-08-29T12:47:46.003Z,100396.94
2022-08-29T12:50:22.569Z,100401.88
2022-08-29T12:53:07.090Z,100395.34
2022-08-29T12:55:45.061Z,100398.22
2022-08-29T12:58:38.045Z,100401.06
2022-08-29T13:01:22.679Z,100397.41
2022-08-29T13:04:07.839Z,100399.22
2022-08-29T13:06:39.551Z,100398.19
2022-08-29T13:09:17.779Z,100398.19
2022-08-29T13:11:48.765Z,100393.81
2022-08-29T13:14:21.852Z,100394.25
2022-08-29T13:17:36.419Z,100390.22
2022-08-29T13:20:49.132Z,100400.25
2022-08-29T13:23:28.053Z,100394.28
2022-08-29T13:26:07.519Z,100392.31
2022-08-29T13:28:46.580Z,100391.16
2022-08-29T13:31:39.219Z,100390.47
2022-08-29T13:34:19.842Z,100402.81
2022-08-29T13:37:48.708Z,100393.88
2022-08-29T13:40:39.262Z,100392.38
2022-08-29T13:43:39.664Z,100387.88
2022-08-29T13:46:21.398Z,100393.63
2022-08-29T13:49:02.353Z,100400.16
2022-08-29T13:51:33.158Z,100394.19
2022-08-29T13:54:04.722Z,100395.44
2022-08-29T13:59:14.927Z,100403.00
2022-08-29T14:04:39.373Z,100395.31
2022-08-29T14:07:14.559Z,100392.53
2022-08-29T14:09:47.941Z,100401.22
2022-08-29T14:12:18.989Z,100399.72
2022-08-29T14:14:52.367Z,100398.09
2022-08-29T14:17:25.466Z,100397.84
2022-08-29T14:19:56.623Z,100399.53
2022-08-29T14:22:28.628Z,100404.09
2022-08-29T14:24:59.405Z,100400.44
2022-08-29T14:27:30.265Z,100399.19
2022-08-29T14:30:03.326Z,100395.06
2022-08-29T14:32:34.508Z,100399.63
2022-08-29T14:35:05.490Z,100402.13
2022-08-29T14:37:36.905Z,100395.16
2022-08-29T14:40:21.861Z,100385.78
2022-08-29T14:42:53.528Z,100387.47
2022-08-29T14:45:26.641Z,100388.38
2022-08-29T14:48:02.336Z,100392.91
2022-08-29T14:50:40.042Z,100384.44
2022-08-29T14:53:11.285Z,100380.88
2022-08-29T14:55:42.073Z,100372.31
2022-08-29T14:58:13.344Z,100378.97
2022-08-29T15:00:58.819Z,100383.44
2022-08-29T15:03:30.688Z,100381.38
2022-08-29T15:06:02.368Z,100381.72
2022-08-29T15:08:40.157Z,100376.41
2022-08-29T15:11:12.373Z,100375.59
2022-08-29T15:13:45.641Z,100378.00
2022-08-29T15:16:23.436Z,100375.94
2022-08-29T15:19:40.597Z,100375.16
2022-08-29T15:21:57.907Z,100378.50
2022-08-29T15:24:43.191Z,100383.84
2022-08-29T15:27:17.782Z,100381.09
2022-08-29T15:29:53.434Z,100376.72
2022-08-29T15:32:26.371Z,100376.81
2022-08-29T15:35:15.205Z,100380.22
2022-08-29T15:37:49.751Z,100375.88
2022-08-29T15:40:24.609Z,100375.97
2022-08-29T15:43:00.719Z,100370.25
2022-08-29T15:45:32.135Z,100373.94
2022-08-29T15:48:11.600Z,100374.28
2022-08-29T15:50:43.681Z,100378.75
2022-08-29T15:53:14.014Z,100382.44
2022-08-29T15:55:44.641Z,100378.31
2022-08-29T15:58:15.336Z,100377.13
2022-08-29T16:00:47.307Z,100381.28
2022-08-29T16:03:20.740Z,100382.94
2022-08-29T16:05:51.616Z,100392.75
2022-08-29T16:08:25.898Z,100394.81
2022-08-29T16:11:01.801Z,100395.28
2022-08-29T16:13:33.111Z,100387.13
2022-08-29T16:16:04.281Z,100394.09
2022-08-29T16:18:36.793Z,100396.63
2022-08-29T16:21:08.377Z,100397.84
2022-08-29T16:23:38.782Z,100408.47
2022-08-29T16:26:12.265Z,100406.84
2022-08-29T16:28:43.208Z,100413.81
2022-08-29T16:31:14.226Z,100408.91
2022-08-29T16:33:48.233Z,100408.47
2022-08-29T16:36:21.633Z,100406.84
2022-08-29T16:38:53.423Z,100406.44
2022-08-29T16:41:25.732Z,100401.97
2022-08-29T16:43:57.048Z,100412.56
2022-08-29T16:46:31.036Z,100413.41
2022-08-29T16:49:05.222Z,100421.16
2022-08-29T16:51:36.721Z,100415.06
2022-08-29T16:54:07.857Z,100422.44
2022-08-29T16:56:40.440Z,100426.53
2022-08-29T16:59:13.535Z,100430.22
2022-08-29T17:01:46.924Z,100427.38
2022-08-29T17:04:23.878Z,100438.34
2022-08-29T17:06:56.067Z,100425.28
2022-08-29T17:09:26.997Z,100435.47
2022-08-29T17:11:56.509Z,100424.91
2022-08-29T17:14:26.198Z,100437.13
2022-08-29T17:16:58.110Z,100437.13
2022-08-29T17:19:33.198Z,100440.78
2022-08-29T17:22:04.355Z,100448.56
2022-08-29T17:24:34.990Z,100447.75
2022-08-29T17:27:06.441Z,100454.69
2022-08-29T17:29:37.903Z,100453.88
2022-08-29T17:32:18.963Z,100458.34
2022-08-29T17:34:51.985Z,100455.94
2022-08-29T17:37:22.722Z,100459.22
2022-08-29T17:39:57.500Z,100458.88
2022-08-29T17:42:30.746Z,100469.94
2022-08-29T17:45:01.658Z,100471.63
2022-08-29T17:47:33.096Z,100477.75
2022-08-29T17:50:06.900Z,100477.75
2022-08-29T17:52:40.406Z,100487.22
2022-08-29T17:55:12.600Z,100489.34
2022-08-29T17:57:43.376Z,100489.81
2022-08-29T18:00:15.256Z,100486.13
2022-08-29T18:02:48.176Z,100488.97
2022-08-29T18:05:23.786Z,100495.50
2022-08-29T18:08:00.082Z,100485.31
2022-08-29T18:10:43.580Z,100493.97
2022-08-29T18:13:16.670Z,100492.84
2022-08-29T18:15:52.618Z,100489.63
2022-08-29T18:18:24.353Z,100492.94
2022-08-29T18:20:56.975Z,100492.56
2022-08-29T18:23:28.107Z,100495.84
2022-08-29T18:25:58.682Z,100493.44
2022-08-29T18:28:29.747Z,100497.09
2022-08-29T18:31:01.962Z,100503.19
2022-08-29T18:33:50.375Z,100497.03
2022-08-29T18:36:27.782Z,100492.94
2022-08-29T18:38:59.544Z,100494.53
2022-08-29T18:41:30.446Z,100501.50
2022-08-29T18:44:01.710Z,100506.41
2022-08-29T18:46:32.142Z,100500.72
2022-08-29T18:49:03.398Z,100505.16
2022-08-29T18:51:38.697Z,100499.00
2022-08-29T18:54:10.851Z,100499.00
2022-08-29T18:56:43.012Z,100504.28
2022-08-29T18:59:13.813Z,100503.50
2022-08-29T19:01:46.601Z,100504.72
2022-08-29T19:04:16.734Z,100500.63
2022-08-29T19:06:56.043Z,100505.09
2022-08-29T19:09:27.492Z,100503.50
2022-08-29T19:12:00.198Z,100505.09
2022-08-29T19:14:31.518Z,100497.31
2022-08-29T19:17:03.518Z,100496.94
2022-08-29T19:19:55.042Z,100498.63
2022-08-29T19:22:26.463Z,100489.69
2022-08-29T19:24:57.945Z,100494.25
2022-08-29T19:27:42.670Z,100494.69
2022-08-29T19:30:16.134Z,100493.94
2022-08-29T19:32:46.668Z,100496.00
2022-08-29T19:35:18.797Z,100498.41
2022-08-29T19:37:52.422Z,100497.19
2022-08-29T19:40:24.270Z,100492.25
2022-08-29T19:42:56.264Z,100500.03
2022-08-29T19:45:29.133Z,100493.16
2022-08-29T19:48:01.884Z,100493.56
2022-08-29T19:50:32.864Z,100490.34
2022-08-29T19:53:10.768Z,100490.75
2022-08-29T19:55:42.319Z,100492.81
2022-08-29T19:58:14.391Z,100497.28
2022-08-29T20:00:47.203Z,100488.72
2022-08-29T20:03:19.142Z,100491.56
2022-08-29T20:05:49.730Z,100486.28
2022-08-29T20:08:23.926Z,100494.44
2022-08-29T20:10:56.437Z,100496.06
2022-08-29T20:13:32.817Z,100492.38
2022-08-29T20:16:14.814Z,100500.56
2022-08-29T20:18:50.468Z,100495.75
2022-08-29T20:21:25.937Z,100503.88
2022-08-29T20:23:58.664Z,100498.94
2022-08-29T20:26:33.900Z,100503.41
2022-08-29T20:29:08.437Z,100495.69
2022-08-29T20:31:41.099Z,100495.69
2022-08-29T20:34:13.244Z,100503.00
2022-08-29T20:37:00.222Z,100500.56
2022-08-29T20:39:33.717Z,100504.66
2022-08-29T20:42:05.959Z,100511.97
2022-08-29T20:44:41.515Z,100522.63
2022-08-29T20:47:15.694Z,100517.69
2022-08-29T20:49:47.059Z,100517.31
2022-08-29T20:52:21.174Z,100515.28
2022-08-29T20:54:55.207Z,100514.13
2022-08-29T20:57:26.054Z,100518.63
2022-08-29T20:59:56.686Z,100512.13
2022-08-29T21:02:40.258Z,100510.06
2022-08-29T21:05:29.666Z,100514.53
2022-08-29T21:08:01.803Z,100514.97
2022-08-29T21:10:36.448Z,100511.69
2022-08-29T21:13:08.203Z,100514.53
2022-08-29T21:15:39.136Z,100510.44
2022-08-29T21:18:10.632Z,100516.16
2022-08-29T21:20:54.028Z,100506.78
2022-08-29T21:23:27.481Z,100502.31
2022-08-29T21:26:03.444Z,100500.72
2022-08-29T21:28:35.300Z,100504.34
2022-08-29T21:31:10.669Z,100506.41
2022-08-29T21:33:44.160Z,100510.88
2022-08-29T21:36:18.733Z,100507.22
2022-08-29T21:38:54.624Z,100514.53
2022-08-29T21:41:32.767Z,100511.69
2022-08-29T21:44:04.798Z,100510.06
2022-08-29T21:46:39.088Z,100509.66
2022-08-29T21:49:09.904Z,100512.50
2022-08-29T21:51:41.869Z,100525.94
2022-08-29T21:54:13.943Z,100512.91
2022-08-29T21:56:49.747Z,100512.13
2022-08-29T21:59:22.467Z,100521.13
2022-08-29T22:01:55.077Z,100519.16
2022-08-29T22:04:28.908Z,100517.09
2022-08-29T22:07:00.940Z,100517.53
2022-08-29T22:09:33.989Z,100520.84
2022-08-29T22:12:07.513Z,100516.78
2022-08-29T22:14:55.274Z,100508.28
2022-08-29T22:17:26.307Z,100511.19
2022-08-29T22:19:57.374Z,100513.69
2022-08-29T22:22:29.248Z,100507.97
2022-08-29T22:25:00.481Z,100514.50
2022-08-29T22:27:33.683Z,100512.06
2022-08-29T22:30:04.998Z,100510.09
2022-08-29T22:32:36.559Z,100509.28
2022-08-29T22:35:09.375Z,100508.03
2022-08-29T22:37:40.922Z,100505.19
2022-08-29T22:40:15.785Z,100507.19
2022-08-29T22:42:50.204Z,100505.13
2022-08-29T22:45:21.943Z,100499.00
2022-08-29T22:47:52.418Z,100503.88
2022-08-29T22:50:26.966Z,100503.47
2022-08-29T22:52:59.335Z,100497.75
2022-08-29T22:58:02.614Z,100507.56
2022-08-29T23:00:34.704Z,100498.63
2022-08-29T23:03:06.476Z,100501.91
2022-08-29T23:05:37.283Z,100506.03
2022-08-29T23:08:08.424Z,100507.72
2022-08-29T23:10:39.186Z,100502.47
2022-08-29T23:13:11.689Z,100502.91
2022-08-29T23:15:43.319Z,100504.50
2022-08-29T23:18:13.981Z,100509.41
2022-08-29T23:20:46.770Z,100510.59
2022-08-29T23:23:18.520Z,100508.56
2022-08-29T23:25:49.105Z,100511.41
2022-08-29T23:28:22.289Z,100515.88
2022-08-29T23:30:52.804Z,100500.78
2022-08-29T23:33:25.448Z,100501.59
2022-08-29T23:35:55.910Z,100506.03
2022-08-29T23:38:27.195Z,100497.47
2022-08-29T23:41:00.953Z,100506.88
2022-08-29T23:43:36.951Z,100506.44
2022-08-29T23:46:08.929Z,100501.94
2022-08-29T23:48:40.086Z,100509.28
2022-08-29T23:51:15.755Z,100507.66
2022-08-29T23:53:48.447Z,100505.69
2022-08-29T23:56:21.963Z,100498.75
2022-08-29T23:58:57.553Z,100501.59
